createdAt,value
2022-10-13T00:02:24.000Z,9.7
2022-10-13T00:05:08.000Z,11.9
2022-10-13T00:07:53.000Z,11.1
2022-10-13T00:10:37.000Z,7.2
2022-10-13T00:11:55.000Z,6.9
2022-10-13T00:13:22.000Z,6.3
2022-10-13T00:16:07.000Z,8.7
2022-10-13T00:18:51.000Z,7.4
2022-10-13T00:21:36.000Z,6.9
2022-10-13T00:24:21.000Z,6.8
2022-10-13T00:27:05.000Z,5.5
2022-10-13T00:29:50.000Z,6.6
2022-10-13T00:32:35.000Z,6.3
2022-10-13T00:35:19.000Z,6.7
2022-10-13T00:38:04.000Z,7.2
2022-10-13T00:39:22.000Z,8
2022-10-13T00:40:49.000Z,6.3
2022-10-13T00:43:33.000Z,8
2022-10-13T00:46:18.000Z,5.9
2022-10-13T00:49:02.000Z,6
2022-10-13T00:51:47.000Z,7.3
2022-10-13T00:57:00.000Z,6
2022-10-13T00:59:45.000Z,5.6
2022-10-13T01:02:29.000Z,6.5
2022-10-13T01:05:14.000Z,6.9
2022-10-13T01:06:48.000Z,6.9
2022-10-13T01:08:06.000Z,7.2
2022-10-13T01:10:50.000Z,6.7
2022-10-13T01:13:35.000Z,9.6
2022-10-13T01:16:20.000Z,8.7
2022-10-13T01:19:04.000Z,6.8
2022-10-13T01:21:49.000Z,7
2022-10-13T01:24:34.000Z,5.3
2022-10-13T01:27:18.000Z,5.1
2022-10-13T01:32:31.000Z,5.7
2022-10-13T01:34:15.000Z,7.2
2022-10-13T01:35:32.000Z,6.7
2022-10-13T01:38:17.000Z,8.3
2022-10-13T01:41:02.000Z,10.2
2022-10-13T01:43:46.000Z,6
2022-10-13T01:46:31.000Z,7.6
2022-10-13T01:49:15.000Z,7.7
2022-10-13T01:52:00.000Z,7.1
2022-10-13T01:54:45.000Z,6.5
2022-10-13T01:57:29.000Z,9.5
2022-10-13T02:00:14.000Z,7.2
2022-10-13T02:01:41.000Z,6.4
2022-10-13T02:02:59.000Z,6.3
2022-10-13T02:06:00.000Z,7.8
2022-10-13T02:08:45.000Z,7.1
2022-10-13T02:11:29.000Z,7.4
2022-10-13T02:14:14.000Z,6.4
2022-10-13T02:16:58.000Z,7.1
2022-10-13T02:19:43.000Z,7.8
2022-10-13T02:22:28.000Z,7.1
2022-10-13T02:25:12.000Z,6.2
2022-10-13T02:27:57.000Z,4.6
2022-10-13T02:29:15.000Z,7.2
2022-10-13T02:30:42.000Z,7.3
2022-10-13T02:33:26.000Z,7.8
2022-10-13T02:36:11.000Z,6.8
2022-10-13T02:38:56.000Z,8
2022-10-13T02:41:40.000Z,6.1
2022-10-13T02:44:25.000Z,7.3
2022-10-13T02:47:09.000Z,9
2022-10-13T02:49:54.000Z,7.4
2022-10-13T02:52:39.000Z,7.4
2022-10-13T02:55:23.000Z,8.8
2022-10-13T02:56:41.000Z,8.5
2022-10-13T02:58:08.000Z,9.8
2022-10-13T03:00:53.000Z,8.5
2022-10-13T03:03:37.000Z,8.5
2022-10-13T03:06:22.000Z,7.3
2022-10-13T03:09:07.000Z,9.8
2022-10-13T03:11:51.000Z,11.8
2022-10-13T03:14:36.000Z,8.4
2022-10-13T03:17:20.000Z,6.9
2022-10-13T03:20:05.000Z,10.1
2022-10-13T03:22:50.000Z,10.4
2022-10-13T03:24:08.000Z,8.4
2022-10-13T03:28:19.000Z,11.7
2022-10-13T03:31:04.000Z,11.9
2022-10-13T03:33:48.000Z,9.1
2022-10-13T03:39:01.000Z,8.4
2022-10-13T03:41:46.000Z,7.4
2022-10-13T03:44:31.000Z,11.1
2022-10-13T03:47:15.000Z,8.1
2022-10-13T03:50:00.000Z,10.6
2022-10-13T03:51:34.000Z,10.6
2022-10-13T03:52:52.000Z,11.2
2022-10-13T03:55:36.000Z,10.7
2022-10-13T03:58:21.000Z,10.8
2022-10-13T04:01:06.000Z,11.5
2022-10-13T04:03:50.000Z,10.3
2022-10-13T04:06:35.000Z,10.5
2022-10-13T04:09:19.000Z,11.6
2022-10-13T04:12:04.000Z,12.9
2022-10-13T04:14:49.000Z,12.8
2022-10-13T04:17:33.000Z,11.7
2022-10-13T04:19:00.000Z,14.4
2022-10-13T04:20:18.000Z,15.6
2022-10-13T04:23:03.000Z,16.8
2022-10-13T04:25:47.000Z,16.3
2022-10-13T04:28:32.000Z,17.9
2022-10-13T04:31:17.000Z,16.2
2022-10-13T04:34:01.000Z,17.8
2022-10-13T04:36:46.000Z,16.2
2022-10-13T04:39:31.000Z,14.4
2022-10-13T04:42:15.000Z,16.8
2022-10-13T04:45:00.000Z,16.6
2022-10-13T04:46:27.000Z,15.7
2022-10-13T04:47:45.000Z,14.2
2022-10-13T04:50:29.000Z,15.6
2022-10-13T04:53:14.000Z,13.9
2022-10-13T04:55:58.000Z,10.9
2022-10-13T04:58:43.000Z,14.5
2022-10-13T05:01:28.000Z,13.2
2022-10-13T05:04:12.000Z,12.5
2022-10-13T05:06:57.000Z,13
2022-10-13T05:12:26.000Z,13.3
2022-10-13T05:13:53.000Z,14.7
2022-10-13T05:15:11.000Z,15.3
2022-10-13T05:17:56.000Z,15.9
2022-10-13T05:20:40.000Z,11.8
2022-10-13T05:23:25.000Z,14.3
2022-10-13T05:28:38.000Z,13.7
2022-10-13T05:31:22.000Z,13.4
2022-10-13T05:34:07.000Z,15.2
2022-10-13T05:36:52.000Z,13.7
2022-10-13T05:39:36.000Z,13.5
2022-10-13T05:41:20.000Z,12.5
2022-10-13T05:42:37.000Z,13.7
2022-10-13T05:45:22.000Z,14
2022-10-13T05:48:07.000Z,10.9
2022-10-13T05:53:36.000Z,13.3
2022-10-13T05:56:21.000Z,10.4
2022-10-13T05:59:05.000Z,13.5
2022-10-13T06:01:50.000Z,12.3
2022-10-13T06:04:34.000Z,11.5
2022-10-13T06:07:19.000Z,13.1
2022-10-13T06:08:46.000Z,15.8
2022-10-13T06:10:04.000Z,14.2
2022-10-13T06:12:48.000Z,13.9
2022-10-13T06:15:33.000Z,13.4
2022-10-13T06:18:18.000Z,13.4
2022-10-13T06:21:02.000Z,14.2
2022-10-13T06:23:47.000Z,12.5
2022-10-13T06:26:32.000Z,13
2022-10-13T06:29:16.000Z,15.2
2022-10-13T06:32:01.000Z,13.7
2022-10-13T06:34:46.000Z,11.3
2022-10-13T06:36:12.000Z,10.8
2022-10-13T06:37:30.000Z,12.7
2022-10-13T06:40:15.000Z,11.1
2022-10-13T06:45:44.000Z,12.2
2022-10-13T06:48:29.000Z,10.6
2022-10-13T06:51:13.000Z,11.2
2022-10-13T06:53:58.000Z,10.6
2022-10-13T06:56:43.000Z,11.3
2022-10-13T06:59:27.000Z,13
2022-10-13T07:02:12.000Z,12.4
2022-10-13T07:03:39.000Z,12.3
2022-10-13T07:04:57.000Z,13.6
2022-10-13T07:07:41.000Z,13.2
2022-10-13T07:10:26.000Z,12.4
2022-10-13T07:13:11.000Z,11.4
2022-10-13T07:15:55.000Z,12.3
2022-10-13T07:18:40.000Z,12.2
2022-10-13T07:21:24.000Z,12.9
2022-10-13T07:26:54.000Z,10.6
2022-10-13T07:29:38.000Z,10.7
2022-10-13T07:31:05.000Z,11.7
2022-10-13T07:32:23.000Z,13.3
2022-10-13T07:35:08.000Z,11.5
2022-10-13T07:37:52.000Z,11.2
2022-10-13T07:40:37.000Z,11.9
2022-10-13T07:43:22.000Z,11.5
2022-10-13T07:46:06.000Z,11.5
2022-10-13T07:48:51.000Z,9.2
2022-10-13T07:51:36.021Z,11.6
2022-10-13T07:54:20.000Z,11.4
2022-10-13T07:57:05.000Z,8.9
2022-10-13T07:58:32.000Z,10.2
2022-10-13T07:59:49.000Z,10.3
2022-10-13T08:02:34.000Z,8.1
2022-10-13T08:05:19.000Z,10.3
2022-10-13T08:08:03.000Z,9.9
2022-10-13T08:13:33.000Z,10.6
2022-10-13T08:16:17.000Z,10.6
2022-10-13T08:19:02.000Z,9.6
2022-10-13T08:21:47.000Z,9.3
2022-10-13T08:24:31.000Z,8.9
2022-10-13T08:25:58.000Z,10.3
2022-10-13T08:27:16.000Z,9.9
2022-10-13T08:30:01.000Z,10.1
2022-10-13T08:32:45.000Z,9.6
2022-10-13T08:35:30.000Z,9.1
2022-10-13T08:38:14.000Z,9.6
2022-10-13T08:40:59.000Z,10.6
2022-10-13T08:43:44.000Z,10.9
2022-10-13T08:46:28.000Z,10.6
2022-10-13T08:49:13.000Z,10.3
2022-10-13T08:51:58.000Z,10
2022-10-13T08:53:25.000Z,11
2022-10-13T08:54:42.000Z,10.2
2022-10-13T08:57:27.000Z,10.1
2022-10-13T09:02:56.000Z,9.2
2022-10-13T09:08:26.000Z,8.7
2022-10-13T09:11:10.000Z,9
2022-10-13T09:13:55.000Z,8.3
2022-10-13T09:16:39.000Z,9.4
2022-10-13T09:19:24.000Z,8.2
2022-10-13T09:22:09.000Z,8
2022-10-13T09:24:53.000Z,8.1
2022-10-13T09:27:38.000Z,8.5
2022-10-13T09:30:23.000Z,8
2022-10-13T09:33:07.000Z,7.8
2022-10-13T09:35:52.000Z,7.8
2022-10-13T09:38:37.000Z,8
2022-10-13T09:41:21.000Z,8
2022-10-13T09:44:06.000Z,7.3
2022-10-13T09:46:50.000Z,8
2022-10-13T09:48:18.000Z,8.9
2022-10-13T09:49:35.000Z,8.2
2022-10-13T09:55:05.000Z,8.3
2022-10-13T09:57:49.000Z,8.2
2022-10-13T10:00:34.000Z,8.1
2022-10-13T10:03:19.000Z,8.1
2022-10-13T10:06:03.000Z,8.1
2022-10-13T10:08:48.000Z,7.6
2022-10-13T10:11:32.000Z,8.3
2022-10-13T10:14:17.000Z,8
2022-10-13T10:17:02.000Z,8.1
2022-10-13T10:18:28.000Z,8.7
2022-10-13T10:19:46.000Z,8
2022-10-13T10:22:31.000Z,8.6
2022-10-13T10:25:16.000Z,8.3
2022-10-13T10:28:00.000Z,7.9
2022-10-13T10:30:45.000Z,7.6
2022-10-13T10:36:31.000Z,7.7
2022-10-13T10:39:15.000Z,7.6
2022-10-13T10:42:00.000Z,7.7
2022-10-13T10:45:01.000Z,7.6
2022-10-13T10:46:19.000Z,7.6
2022-10-13T10:47:46.000Z,7.7
2022-10-13T10:50:30.000Z,7.3
2022-10-13T10:53:15.000Z,7.5
2022-10-13T10:55:59.000Z,7.8
2022-10-13T10:58:44.000Z,6.8
2022-10-13T11:01:29.000Z,8.2
2022-10-13T11:04:13.000Z,7.2
2022-10-13T11:06:58.000Z,6.4
2022-10-13T11:09:43.000Z,7.2
2022-10-13T11:12:27.000Z,7.7
2022-10-13T11:13:45.000Z,8.1
2022-10-13T11:17:57.000Z,7.2
2022-10-13T11:20:41.000Z,7.1
2022-10-13T11:23:26.000Z,7.4
2022-10-13T11:26:10.000Z,6.8
2022-10-13T11:28:55.000Z,7.3
2022-10-13T11:31:40.000Z,7.3
2022-10-13T11:34:24.000Z,7.1
2022-10-13T11:37:09.000Z,7.3
2022-10-13T11:39:54.000Z,7.1
2022-10-13T11:42:38.000Z,7.1
2022-10-13T11:43:56.000Z,6.7
2022-10-13T11:45:23.000Z,6.7
2022-10-13T11:48:08.000Z,6.4
2022-10-13T11:50:52.000Z,7.1
2022-10-13T11:53:37.000Z,6.1
2022-10-13T11:59:06.000Z,6.1
2022-10-13T12:01:51.000Z,6.3
2022-10-13T12:04:35.000Z,5.9
2022-10-13T12:07:20.000Z,5.8
2022-10-13T12:10:05.000Z,5.6
2022-10-13T12:12:49.000Z,5.8
2022-10-13T12:14:07.000Z,5.6
2022-10-13T12:15:34.000Z,4.7
2022-10-13T12:18:19.000Z,4.9
2022-10-13T12:21:03.000Z,5.2
2022-10-13T12:23:48.000Z,4.8
2022-10-13T12:26:33.000Z,4.8
2022-10-13T12:29:17.000Z,5.4
2022-10-13T12:32:02.000Z,5
2022-10-13T12:34:47.000Z,5.4
2022-10-13T12:41:34.000Z,5.2
2022-10-13T12:43:00.000Z,5.7
2022-10-13T12:48:30.000Z,5
2022-10-13T12:51:14.000Z,4.8
2022-10-13T12:53:59.000Z,5.1
2022-10-13T12:56:44.000Z,5.6
2022-10-13T12:59:28.000Z,4.8
2022-10-13T13:02:13.000Z,4.9
2022-10-13T13:04:58.000Z,5
2022-10-13T13:07:42.000Z,5.2
2022-10-13T13:09:00.000Z,4.2
2022-10-13T13:13:11.000Z,4.6
2022-10-13T13:15:56.000Z,4.6
2022-10-13T13:18:41.000Z,4.9
2022-10-13T13:21:25.000Z,5.3
2022-10-13T13:24:10.000Z,4.2
2022-10-13T13:29:39.000Z,4.2
2022-10-13T13:32:24.000Z,4.5
2022-10-13T13:35:09.000Z,4.6
2022-10-13T13:36:26.000Z,4.8
2022-10-13T13:38:10.000Z,4.6
2022-10-13T13:40:54.000Z,4.4
2022-10-13T13:43:39.000Z,4.5
2022-10-13T13:46:24.000Z,4.5
2022-10-13T13:49:08.000Z,4.3
2022-10-13T13:51:53.000Z,4.7
2022-10-13T14:00:07.000Z,4.8
2022-10-13T14:02:51.000Z,5.6
2022-10-13T14:05:36.000Z,5.7
2022-10-13T14:08:21.000Z,5.9
2022-10-13T14:11:05.000Z,6.1
2022-10-13T14:13:50.000Z,6.2
2022-10-13T14:16:35.000Z,7
2022-10-13T14:19:19.000Z,7.3
2022-10-13T14:22:04.000Z,8.3
2022-10-13T14:25:05.000Z,6.9
2022-10-13T14:27:50.000Z,7.6
2022-10-13T14:30:34.000Z,8.9
2022-10-13T14:31:52.000Z,7.9
2022-10-13T14:33:19.000Z,9.3
2022-10-13T14:36:03.000Z,8.2
2022-10-13T14:38:48.000Z,7.6
2022-10-13T14:41:33.000Z,7.7
2022-10-13T14:44:17.000Z,7.3
2022-10-13T14:47:02.000Z,7.7
2022-10-13T14:49:47.000Z,8.4
2022-10-13T14:52:31.000Z,9.2
2022-10-13T14:55:16.000Z,9.7
2022-10-13T14:58:01.000Z,11.1
2022-10-13T14:59:18.000Z,11.7
2022-10-13T15:00:45.000Z,12.1
2022-10-13T15:03:46.000Z,12.3
2022-10-13T15:06:31.000Z,12.8
2022-10-13T15:09:16.000Z,14.2
2022-10-13T15:12:00.000Z,14.8
2022-10-13T15:14:45.000Z,14.9
2022-10-13T15:17:29.000Z,16.2
2022-10-13T15:20:14.000Z,15.9
2022-10-13T15:22:59.000Z,16.7
2022-10-13T15:25:43.000Z,17.4
2022-10-13T15:27:01.000Z,18
2022-10-13T15:28:28.000Z,17.5
2022-10-13T15:31:13.000Z,17.6
2022-10-13T15:33:57.000Z,16.6
2022-10-13T15:36:42.000Z,17
2022-10-13T15:39:27.000Z,17.3
2022-10-13T15:42:11.000Z,16.4
2022-10-13T15:44:56.000Z,16.6
2022-10-13T15:47:40.000Z,17.8
2022-10-13T15:53:10.000Z,18.2
2022-10-13T15:54:28.000Z,18
2022-10-13T15:55:55.000Z,18.9
2022-10-13T15:58:55.000Z,20
2022-10-13T16:01:40.000Z,20.3
2022-10-13T16:04:25.000Z,23.6
2022-10-13T16:07:09.000Z,26.1
2022-10-13T16:09:54.000Z,26.9
2022-10-13T16:12:39.000Z,25.8
2022-10-13T16:15:23.000Z,23.9
2022-10-13T16:18:08.000Z,25.3
2022-10-13T16:20:53.000Z,25.1
2022-10-13T16:22:10.000Z,25
2022-10-13T16:23:37.000Z,25
2022-10-13T16:26:22.000Z,25.6
2022-10-13T16:29:06.000Z,25.3
2022-10-13T16:31:51.000Z,25.5
2022-10-13T16:34:36.000Z,24.8
2022-10-13T16:37:20.000Z,25.4
2022-10-13T16:40:05.000Z,23.5
2022-10-13T16:42:50.000Z,23.9
2022-10-13T16:45:34.000Z,24.5
2022-10-13T16:48:19.000Z,24.6
2022-10-13T16:49:37.000Z,25.8
2022-10-13T16:51:04.000Z,25.2
2022-10-13T16:53:48.000Z,25.7
2022-10-13T16:56:33.000Z,24.3
2022-10-13T16:59:18.000Z,40.1
2022-10-13T17:02:02.000Z,34.7
2022-10-13T17:04:47.000Z,30.6
2022-10-13T17:07:31.000Z,28.7
2022-10-13T17:10:16.000Z,28.7
2022-10-13T17:13:01.000Z,28.8
2022-10-13T17:15:45.000Z,28.5
2022-10-13T17:17:03.000Z,28.6
2022-10-13T17:18:30.000Z,44.7
2022-10-13T17:21:15.000Z,49.5
2022-10-13T17:23:59.000Z,43.1
2022-10-13T17:26:44.000Z,41.5
2022-10-13T17:29:29.000Z,48
2022-10-13T17:32:13.000Z,67.2
2022-10-13T17:34:58.000Z,68.9
2022-10-13T17:37:42.000Z,45
2022-10-13T17:40:27.000Z,33.8
2022-10-13T17:43:12.000Z,35.9
2022-10-13T17:44:30.000Z,33.6
2022-10-13T17:45:56.000Z,30.4
2022-10-13T17:48:41.000Z,31.6
2022-10-13T17:51:26.000Z,28.9
2022-10-13T17:54:10.000Z,32.3
2022-10-13T17:56:55.000Z,28.8
2022-10-13T17:59:40.000Z,30.7
2022-10-13T18:02:24.000Z,31.7
2022-10-13T18:05:09.000Z,30.7
2022-10-13T18:07:54.000Z,32.7
2022-10-13T18:10:38.000Z,34.7
2022-10-13T18:11:56.000Z,35.7
2022-10-13T18:13:23.000Z,36.5
2022-10-13T18:16:07.000Z,34.6
2022-10-13T18:21:37.000Z,29.7
2022-10-13T18:24:21.000Z,27.7
2022-10-13T18:27:06.000Z,28.5
2022-10-13T18:29:51.000Z,33.3
2022-10-13T18:32:35.000Z,34.9
2022-10-13T18:35:20.000Z,28.9
2022-10-13T18:38:05.000Z,31.4
2022-10-13T18:39:22.000Z,28.6
2022-10-13T18:40:49.000Z,31.6
2022-10-13T18:46:02.000Z,32.1
2022-10-13T18:48:47.000Z,33.2
2022-10-13T18:51:31.000Z,33.3
2022-10-13T18:54:16.000Z,32.3
2022-10-13T18:57:01.000Z,30.2
2022-10-13T18:59:45.000Z,34.6
2022-10-13T19:02:30.000Z,37.1
2022-10-13T19:05:15.000Z,35.9
2022-10-13T19:06:49.000Z,34.7
2022-10-13T19:08:07.000Z,27.8
2022-10-13T19:10:51.000Z,33.4
2022-10-13T19:13:36.000Z,34.4
2022-10-13T19:16:20.000Z,31.5
2022-10-13T19:21:33.000Z,31.3
2022-10-13T19:24:18.000Z,31
2022-10-13T19:27:19.000Z,26.5
2022-10-13T19:30:04.000Z,28.8
2022-10-13T19:32:48.000Z,31.6
2022-10-13T19:34:15.000Z,34.1
2022-10-13T19:35:33.000Z,30.9
2022-10-13T19:38:18.000Z,29.6
2022-10-13T19:41:02.000Z,28.6
2022-10-13T19:43:47.000Z,32
2022-10-13T19:46:32.000Z,31.4
2022-10-13T19:49:16.000Z,30.6
2022-10-13T19:52:01.000Z,32.1
2022-10-13T19:54:45.000Z,29.5
2022-10-13T19:57:30.000Z,31.4
2022-10-13T20:00:15.000Z,31.7
2022-10-13T20:01:42.000Z,31.3
2022-10-13T20:02:59.000Z,25.9
2022-10-13T20:05:44.000Z,32.2
2022-10-13T20:08:29.000Z,31.1
2022-10-13T20:11:13.000Z,29.9
2022-10-13T20:13:58.000Z,30.5
2022-10-13T20:16:43.000Z,30.7
2022-10-13T20:19:27.000Z,31.6
2022-10-13T20:22:12.000Z,28.3
2022-10-13T20:24:56.000Z,33.5
2022-10-13T20:27:41.000Z,33.5
2022-10-13T20:29:08.000Z,30.6
2022-10-13T20:30:26.000Z,29.7
2022-10-13T20:33:10.000Z,32.7
2022-10-13T20:35:55.000Z,32.6
2022-10-13T20:38:40.000Z,30.8
2022-10-13T20:41:24.000Z,30.7
2022-10-13T20:44:09.000Z,33.4
2022-10-13T20:46:54.000Z,32.5
2022-10-13T20:55:08.000Z,34.3
2022-10-13T21:00:37.000Z,35.3
2022-10-13T21:03:22.000Z,35.3
2022-10-13T21:06:22.000Z,34.3
2022-10-13T21:09:07.000Z,36.9
2022-10-13T21:11:52.000Z,37.5
2022-10-13T21:14:36.000Z,28.2
2022-10-13T21:17:21.000Z,35
2022-10-13T21:20:06.000Z,36.3
2022-10-13T21:21:23.000Z,32.7
2022-10-13T21:22:50.000Z,35.5
2022-10-13T21:25:35.000Z,35.3
2022-10-13T21:28:20.000Z,34.5
2022-10-13T21:31:04.000Z,36.2
2022-10-13T21:33:49.000Z,35
2022-10-13T21:36:34.000Z,36.4
2022-10-13T21:39:18.000Z,36
2022-10-13T21:42:19.000Z,37.6
2022-10-13T21:45:04.000Z,38.4
2022-10-13T21:47:48.000Z,35.9
2022-10-13T21:49:06.000Z,40
2022-10-13T21:50:33.000Z,32.9
2022-10-13T21:53:18.000Z,35.2
2022-10-13T21:56:02.000Z,36.5
2022-10-13T21:58:47.000Z,39.3
2022-10-13T22:01:32.000Z,40.2
2022-10-13T22:04:16.000Z,40
2022-10-13T22:09:46.000Z,40.8
2022-10-13T22:15:15.000Z,38.3
2022-10-13T22:16:33.000Z,39
2022-10-13T22:18:00.000Z,39
2022-10-13T22:20:44.000Z,40
2022-10-13T22:23:29.000Z,39.6
2022-10-13T22:26:13.000Z,35.4
2022-10-13T22:28:58.000Z,40.5
2022-10-13T22:31:43.000Z,40.4
2022-10-13T22:34:27.000Z,39.2
2022-10-13T22:39:57.000Z,38.6
2022-10-13T22:42:41.000Z,38.9
2022-10-13T22:43:59.000Z,38.1
2022-10-13T22:45:26.000Z,32.8
2022-10-13T22:48:11.000Z,35.3
2022-10-13T22:53:40.000Z,34.3
2022-10-13T22:56:24.000Z,38.1
2022-10-13T22:59:09.000Z,35.1
2022-10-13T23:01:54.000Z,36.3
2022-10-13T23:04:38.000Z,38
2022-10-13T23:07:23.000Z,33.1
2022-10-13T23:10:08.000Z,36.5
2022-10-13T23:11:25.000Z,38.4
2022-10-13T23:12:52.000Z,37.7
2022-10-13T23:15:37.000Z,37
2022-10-13T23:18:22.000Z,36.7
2022-10-13T23:21:06.000Z,36.1
2022-10-13T23:23:51.000Z,37.9
2022-10-13T23:26:36.000Z,36.1
2022-10-13T23:29:20.000Z,35.9
2022-10-13T23:32:05.000Z,32.7
2022-10-13T23:37:34.000Z,35.7
2022-10-13T23:38:52.000Z,35
2022-10-13T23:40:19.000Z,34.6
2022-10-13T23:43:03.000Z,31.8
2022-10-13T23:45:48.000Z,30.8
2022-10-13T23:48:33.000Z,30.3
2022-10-13T23:51:17.000Z,30.8
2022-10-13T23:54:02.000Z,30.1
2022-10-13T23:59:31.000Z,30.4
